Impacts METAR Board
IDs:

KMEI - Meridian/Key Fld, MS, US

Updated at: 1000 UTC 16 Aug 2018
Potential Impact None Slight Moderate High
Time 15/22Z 15/23Z 16/00Z 16/01Z 16/02Z 16/03Z 16/04Z 16/05Z 16/06Z 16/07Z 16/08Z 16/09Z 16/10Z
Temp94 93 87 84 81 83 81 79 78 78 77 77 77
Dewpt69 71 75 77 76 73 74 74 74 74 74 74 74
Altim30.01 30.00 30.00 30.01 30.02 30.04 30.05 30.06 30.06 30.05 30.05 30.05 30.06
VIS10 10 10 10 10 10 10 10 10 10 9 9 8
CIG-- -- -- -- -- -- -- -- -- -- -- -- --
CoverCLRCLRCLRCLRCLRCLRCLRCLRCLRCLRCLRCLRCLR
FltCatVFRVFRVFRVFRVFRVFRVFRVFRVFRVFRVFRVFRVFR
WX--------------------------
WDir019001802201801901900190190190190
WSpd0 4 0 3 3 8 5 3 0 5 4 3 3
WGst-- -- -- -- -- -- -- -- -- -- -- -- --
Raw hourly METARs
KMEI 152158Z 00000KT 10SM CLR 34/21 A3001 RMK AO2 SLP156 T03440206
KMEI 152258Z 19004KT 10SM CLR 34/22 A3000 RMK AO2 SLP155 T03390217
KMEI 152358Z 00000KT 10SM CLR 31/24 A3000 RMK AO2 SLP155 T03060239 10361 20306 56004
KMEI 160058Z 18003KT 10SM CLR 29/25 A3001 RMK AO2 SLP157 T02890250
KMEI 160158Z 22003KT 10SM CLR 27/24 A3002 RMK AO2 SLP161 T02720244
KMEI 160258Z 18008KT 10SM CLR 28/23 A3004 RMK AO2 SLP168 T02830228 53013
KMEI 160358Z AUTO 19005KT 10SM CLR 27/23 A3005 RMK AO2 SLP170 T02720233
KMEI 160458Z AUTO 19003KT 10SM CLR 26/23 A3006 RMK AO2 SLP174 T02610233
KMEI 160558Z AUTO 00000KT 10SM CLR 26/23 A3006 RMK AO2 SLP173 T02560233 10306 20250 403610222 50005
KMEI 160658Z AUTO 19005KT 10SM CLR 26/23 A3005 RMK AO2 SLP171 T02560233
KMEI 160758Z AUTO 19004KT 9SM CLR 25/23 A3005 RMK AO2 SLP170 T02500233
KMEI 160858Z AUTO 19003KT 9SM CLR 25/23 A3005 RMK AO2 SLP171 T02500233 55002
KMEI 160958Z AUTO 19003KT 8SM CLR 25/23 A3006 RMK AO2 SLP175 T02500233



Page loaded:  10:24 UTC  |   03:24 AM Pacific  |   04:24 AM Mountain  |   05:24 AM Central  |   06:24 AM Eastern

 

ADVISORIES

FORECASTS

FORECASTS

OBSERVATIONS

USER TOOLS

ABOUT US